Time;durP1;ratioP1;P1;durP2;ratioP2;P2;SDS_P1;SDS_P2;PMS_P1;PMS_P2;Temp;Humidity;BMP_temperature;BMP_pressure;BME280_temperature;BME280_humidity;BME280_pressure;Samples;Min_cycle;Max_cycle;Signal;HPM_P1;HPM_P2
2021/12/15 00:02:11;;;;;;;0.60;0.30;;;;;;;18.77;45.51;101517.56;4427896;32;20195;-69
2021/12/15 00:04:37;;;;;;;2.33;0.30;;;;;;;18.75;45.47;101515.19;4424735;32;20045;-69
2021/12/15 00:07:03;;;;;;;0.55;0.10;;;;;;;18.93;45.17;101526.59;4420048;32;20486;-69
2021/12/15 00:09:29;;;;;;;0.30;0.20;;;;;;;18.68;45.42;101506.97;4419142;32;20107;-69
2021/12/15 00:11:55;;;;;;;0.35;0.20;;;;;;;18.65;45.53;101515.69;4422354;32;20041;-70
2021/12/15 00:14:21;;;;;;;0.90;0.20;;;;;;;18.62;45.69;101513.78;4423482;32;20017;-69
2021/12/15 00:16:48;;;;;;;0.30;0.20;;;;;;;18.38;46.17;101521.37;4423449;32;20064;-69
2021/12/15 00:19:14;;;;;;;1.10;0.47;;;;;;;18.60;45.80;101513.47;4420893;32;20022;-69
2021/12/15 00:21:40;;;;;;;0.20;0.20;;;;;;;18.49;46.01;101524.53;4425250;32;20098;-70
2021/12/15 00:24:07;;;;;;;2.22;0.55;;;;;;;18.59;45.73;101521.22;4426653;32;20033;-70
2021/12/15 00:26:34;;;;;;;0.40;0.30;;;;;;;18.61;45.88;101515.03;4420971;32;20069;-69
2021/12/15 00:29:01;;;;;;;0.65;0.43;;;;;;;18.17;46.78;101520.22;4423735;32;20033;-69
2021/12/15 00:31:30;;;;;;;0.60;0.50;;;;;;;18.02;46.87;101516.38;4421457;32;20041;-69
2021/12/15 00:33:56;;;;;;;0.30;0.30;;;;;;;17.70;47.78;101514.06;4423856;32;20042;-69
2021/12/15 00:36:22;;;;;;;1.30;0.45;;;;;;;17.94;47.31;101517.94;4424741;32;20115;-69
2021/12/15 00:38:48;;;;;;;0.93;0.40;;;;;;;17.60;48.12;101513.25;4421919;32;20076;-69
2021/12/15 00:41:14;;;;;;;1.30;0.40;;;;;;;18.30;46.56;101512.31;4421909;32;20459;-69
2021/12/15 00:43:40;;;;;;;0.55;0.32;;;;;;;17.73;47.56;101516.78;4425714;32;20045;-69
2021/12/15 00:46:06;;;;;;;0.73;0.20;;;;;;;18.14;46.85;101517.50;4423401;32;20072;-69
2021/12/15 00:48:33;;;;;;;1.58;0.40;;;;;;;17.80;47.86;101505.09;4419820;32;20078;-69
2021/12/15 00:50:58;;;;;;;2.03;0.50;;;;;;;17.96;47.41;101506.88;4422987;32;20045;-69
2021/12/15 00:53:24;;;;;;;0.30;0.30;;;;;;;18.24;46.57;101513.41;4425792;32;20026;-69
2021/12/15 00:55:51;;;;;;;2.28;0.30;;;;;;;18.19;46.60;101514.06;4423962;32;20106;-69
2021/12/15 00:58:17;;;;;;;0.57;0.30;;;;;;;17.98;46.95;101498.63;4423269;32;20072;-69
2021/12/15 01:00:49;;;;;;;0.43;0.40;;;;;;;17.26;48.78;101526.78;4424747;32;20085;-69
2021/12/15 01:03:16;;;;;;;0.43;0.25;;;;;;;18.42;46.42;101525.66;4425150;32;20038;-69
2021/12/15 01:05:46;;;;;;;0.47;0.30;;;;;;;18.45;46.19;101509.66;4423978;32;20033;-69
2021/12/15 01:08:19;;;;;;;1.05;0.60;;;;;;;18.16;46.57;101489.34;4419241;32;20120;-69
2021/12/15 01:21:51;;;;;;;2.60;0.40;;;;;;;18.12;46.94;101497.25;4466552;32;20108;-70
2021/12/15 01:24:18;;;;;;;0.40;0.10;;;;;;;17.66;47.94;101491.44;4460965;32;20164;-70
2021/12/15 01:26:44;;;;;;;0.30;0.17;;;;;;;17.82;47.42;101502.56;4464549;32;20401;-70
2021/12/15 01:29:09;;;;;;;0.73;0.32;;;;;;;17.63;47.93;101514.34;4462722;32;20037;-70
2021/12/15 01:31:36;;;;;;;1.42;0.30;;;;;;;18.15;46.71;101505.66;4462947;32;20108;-70
2021/12/15 01:34:02;;;;;;;0.20;0.20;;;;;;;17.86;47.36;101503.19;4458053;32;20385;-70
2021/12/15 01:36:28;;;;;;;0.30;0.20;;;;;;;18.17;46.69;101508.03;4464281;32;20430;-70
2021/12/15 01:38:54;;;;;;;0.82;0.17;;;;;;;18.13;46.67;101518.78;4458565;32;20029;-70
2021/12/15 01:41:22;;;;;;;1.02;0.30;;;;;;;18.23;46.21;101517.53;4449876;32;20045;-70
2021/12/15 01:46:53;;;;;;;0.30;0.20;;;;;;;19.08;44.69;101521.00;3983851;32;15022818;-70
2021/12/15 01:49:23;;;;;;;0.82;0.20;;;;;;;19.08;44.69;101521.00;4434090;32;20075;-70
2021/12/15 01:51:49;;;;;;;0.20;0.10;;;;;;;18.46;45.83;101526.28;4436224;32;20036;-70
2021/12/15 01:54:16;;;;;;;0.40;0.20;;;;;;;18.31;45.90;101525.28;4439540;32;20125;-70
2021/12/15 01:56:43;;;;;;;0.57;0.45;;;;;;;18.79;44.98;101520.75;4438077;32;20098;-70
2021/12/15 01:59:11;;;;;;;0.00;0.00;;;;;;;18.69;45.04;101519.16;4433393;32;20054;-70
2021/12/15 02:01:37;;;;;;;0.32;0.10;;;;;;;18.59;45.18;101529.00;4438838;32;20053;-70
2021/12/15 02:04:04;;;;;;;0.57;0.22;;;;;;;18.66;44.63;101520.12;4438510;32;20069;-70
2021/12/15 02:06:29;;;;;;;0.32;0.20;;;;;;;18.54;44.77;101529.63;4435855;32;20090;-70
2021/12/15 02:08:56;;;;;;;2.03;0.20;;;;;;;18.79;44.62;101523.59;4437079;32;20401;-70
2021/12/15 02:11:24;;;;;;;0.40;0.10;;;;;;;18.64;44.90;101519.78;4436104;32;20033;-70
2021/12/15 02:13:49;;;;;;;0.10;0.05;;;;;;;18.58;45.43;101524.53;4435998;32;20069;-70
2021/12/15 02:16:15;;;;;;;0.20;0.10;;;;;;;18.56;45.25;101519.31;4435826;32;20489;-70
2021/12/15 02:18:44;;;;;;;1.90;0.20;;;;;;;18.60;45.03;101527.72;4436338;32;20183;-70
2021/12/15 02:21:26;;;;;;;0.40;0.20;;;;;;;18.47;45.77;101521.37;4436699;32;20419;-70
2021/12/15 02:23:56;;;;;;;0.47;0.17;;;;;;;18.76;45.00;101531.03;4437133;32;20069;-70
2021/12/15 02:26:31;;;;;;;1.12;0.37;;;;;;;18.32;45.95;101537.50;4436970;32;20082;-70
2021/12/15 02:28:59;;;;;;;1.33;0.40;;;;;;;18.70;45.15;101541.50;4435556;32;20107;-70
2021/12/15 02:37:22;;;;;;;1.42;0.20;;;;;;;18.63;44.68;101541.84;4004770;31;15014604;-70
2021/12/15 02:42:32;;;;;;;0.43;0.20;;;;;;;18.64;44.85;101563.38;3984145;32;15024605;-70
2021/12/15 02:44:58;;;;;;;0.50;0.30;;;;;;;18.61;44.79;101569.22;4440098;32;20571;-69
2021/12/15 02:47:27;;;;;;;1.50;0.30;;;;;;;18.32;45.40;101578.19;4441883;32;20071;-69
2021/12/15 02:49:56;;;;;;;1.05;0.28;;;;;;;18.34;45.67;101575.63;4439022;32;20053;-69
2021/12/15 02:52:23;;;;;;;1.58;0.20;;;;;;;18.65;44.84;101572.72;4437130;32;20060;-69
2021/12/15 02:54:49;;;;;;;0.62;0.15;;;;;;;18.55;44.95;101573.94;4439200;32;20061;-69
2021/12/15 02:57:17;;;;;;;3.15;0.20;;;;;;;18.33;45.17;101576.91;4437620;32;20058;-69
2021/12/15 03:03:04;;;;;;;0.70;0.20;;;;;;;17.88;46.77;101579.63;3981952;32;15022409;-70
2021/12/15 03:05:27;;;;;;;4.12;0.90;;;;;;;17.88;46.77;101579.63;4437231;32;20068;-70
2021/12/15 03:08:07;;;;;;;2.10;0.20;;;;;;;17.29;47.55;101582.78;4435937;32;20081;-70
2021/12/15 03:16:08;;;;;;;0.70;0.20;;;;;;;17.09;48.25;101593.72;4433963;32;20045;-70
2021/12/15 03:18:35;;;;;;;1.83;0.20;;;;;;;17.23;48.09;101593.97;4434545;32;20068;-70
2021/12/15 03:23:50;;;;;;;0.90;0.20;;;;;;;18.41;45.95;101609.56;3954599;32;15725607;-70
2021/12/15 03:26:23;;;;;;;2.12;0.37;;;;;;;18.41;45.95;101609.56;4429697;32;20169;-70
2021/12/15 03:34:38;;;;;;;2.10;0.20;;;;;;;17.94;46.33;101611.91;4435379;32;20096;-70
2021/12/15 03:37:20;;;;;;;0.50;0.22;;;;;;;18.50;45.53;101617.34;4432555;32;20092;-70
2021/12/15 03:39:47;;;;;;;0.77;0.35;;;;;;;18.46;45.42;101625.25;4430410;32;20072;-70
2021/12/15 03:42:24;;;;;;;2.20;0.30;;;;;;;18.38;45.63;101626.81;4432748;32;20100;-70
2021/12/15 03:44:51;;;;;;;0.98;0.30;;;;;;;18.52;45.22;101626.22;4433097;32;20089;-70
2021/12/15 03:47:23;;;;;;;2.33;0.22;;;;;;;18.19;45.88;101628.78;4428359;32;20587;-70
2021/12/15 03:49:52;;;;;;;1.75;0.25;;;;;;;18.55;45.06;101617.53;4430295;32;20104;-70
2021/12/15 03:52:18;;;;;;;1.40;0.30;;;;;;;18.61;45.21;101623.37;4431991;32;20065;-70
2021/12/15 03:54:44;;;;;;;3.80;0.40;;;;;;;18.66;44.66;101623.56;4432462;32;20122;-70
2021/12/15 03:57:10;;;;;;;1.10;0.13;;;;;;;18.17;45.59;101628.47;4433136;32;20145;-70
2021/12/15 03:59:40;;;;;;;1.87;0.40;;;;;;;18.54;45.06;101618.00;4432102;32;20433;-70
2021/12/15 04:02:07;;;;;;;1.10;0.30;;;;;;;18.43;45.26;101632.69;4428661;32;20081;-70
2021/12/15 04:04:33;;;;;;;2.55;0.45;;;;;;;18.27;45.49;101632.94;4432623;32;20125;-70
2021/12/15 04:06:58;;;;;;;1.62;0.35;;;;;;;18.20;45.03;101623.87;4430850;32;20053;-70
2021/12/15 04:09:24;;;;;;;1.45;0.20;;;;;;;18.36;44.94;101624.41;4427903;32;20088;-70
2021/12/15 04:11:52;;;;;;;1.73;0.20;;;;;;;18.86;43.65;101625.94;4430415;32;20070;-70
2021/12/15 04:14:22;;;;;;;5.28;0.40;;;;;;;18.50;44.26;101620.97;4431150;32;20053;-70
2021/12/15 04:17:01;;;;;;;3.25;0.47;;;;;;;18.60;44.17;101627.50;4432537;32;20405;-70
2021/12/15 04:19:28;;;;;;;2.60;0.20;;;;;;;18.89;44.02;101627.84;4429342;32;20098;-70
2021/12/15 04:21:54;;;;;;;0.98;0.62;;;;;;;18.52;44.70;101640.47;4431725;32;20093;-70
2021/12/15 04:24:19;;;;;;;1.73;0.30;;;;;;;18.73;44.30;101628.94;4431529;32;20323;-70
2021/12/15 04:26:47;;;;;;;4.45;0.52;;;;;;;18.51;44.38;101625.44;4430575;32;20478;-70
2021/12/15 04:29:13;;;;;;;1.12;0.30;;;;;;;18.45;44.80;101626.53;4430022;32;20093;-70
2021/12/15 04:31:44;;;;;;;0.65;0.20;;;;;;;18.50;44.41;101635.22;4430396;32;20029;-70
2021/12/15 04:34:11;;;;;;;2.20;0.25;;;;;;;18.24;45.10;101638.78;4421979;32;20038;-70
2021/12/15 04:36:40;;;;;;;4.10;0.30;;;;;;;18.15;45.08;101631.00;4420078;32;20430;-70
2021/12/15 04:39:08;;;;;;;3.45;0.50;;;;;;;18.25;44.88;101629.75;4419720;32;20513;-70
2021/12/15 04:41:35;;;;;;;5.20;0.47;;;;;;;18.61;44.05;101623.37;4420725;32;20435;-70
2021/12/15 04:44:08;;;;;;;4.10;0.50;;;;;;;18.15;44.85;101633.03;4418871;32;20093;-70
2021/12/15 04:46:36;;;;;;;2.25;0.37;;;;;;;18.32;44.26;101631.53;4420423;32;20077;-70
2021/12/15 04:49:04;;;;;;;4.18;0.50;;;;;;;17.93;45.15;101633.13;4421161;32;20103;-70
2021/12/15 04:51:30;;;;;;;3.15;0.43;;;;;;;18.42;44.24;101636.81;4421472;32;20110;-70
2021/12/15 04:53:57;;;;;;;1.98;0.30;;;;;;;18.13;44.50;101627.03;4420035;32;20038;-70
2021/12/15 04:56:25;;;;;;;4.80;0.70;;;;;;;18.10;44.51;101634.44;4423502;32;20037;-70
2021/12/15 04:58:52;;;;;;;3.17;0.45;;;;;;;18.05;44.51;101632.22;4418710;32;20433;-70
2021/12/15 05:01:19;;;;;;;2.22;0.43;;;;;;;17.87;45.11;101632.16;4420685;32;20057;-70
2021/12/15 05:03:45;;;;;;;2.08;0.30;;;;;;;17.65;45.50;101625.72;4419875;32;20103;-70
2021/12/15 05:06:12;;;;;;;2.53;0.40;;;;;;;17.74;45.20;101634.31;4418530;32;20128;-70
2021/12/15 05:08:39;;;;;;;3.30;0.40;;;;;;;17.76;45.33;101646.00;4418041;32;20053;-70
2021/12/15 05:11:06;;;;;;;7.20;0.77;;;;;;;17.83;45.23;101635.12;4418244;32;20101;-70
2021/12/15 05:13:34;;;;;;;6.28;0.40;;;;;;;17.84;45.09;101641.62;4420539;32;20499;-70
2021/12/15 05:16:02;;;;;;;7.32;0.95;;;;;;;17.77;45.13;101639.06;4418701;32;20121;-70
2021/12/15 05:18:28;;;;;;;3.30;0.30;;;;;;;17.83;45.31;101654.28;4420362;32;20071;-70
2021/12/15 05:20:54;;;;;;;4.20;0.90;;;;;;;18.24;44.47;101655.88;4423172;32;20093;-70
2021/12/15 05:23:28;;;;;;;3.83;0.70;;;;;;;18.37;44.11;101654.53;4420973;32;20069;-70
2021/12/15 05:25:54;;;;;;;3.22;0.40;;;;;;;18.34;44.13;101663.19;4419002;32;20088;-70
2021/12/15 05:28:20;;;;;;;3.87;0.28;;;;;;;18.23;44.36;101666.50;4419152;32;20139;-70
2021/12/15 05:30:46;;;;;;;0.88;0.30;;;;;;;18.29;44.26;101669.53;4419123;32;20463;-70
2021/12/15 05:33:12;;;;;;;3.97;0.30;;;;;;;18.57;43.75;101674.06;4418745;32;20073;-70
2021/12/15 05:35:37;;;;;;;2.67;0.20;;;;;;;18.78;43.51;101668.22;4420132;32;20073;-70
2021/12/15 05:38:05;;;;;;;2.03;0.30;;;;;;;18.77;43.34;101680.13;4416051;32;20033;-70
2021/12/15 05:40:32;;;;;;;6.40;0.40;;;;;;;19.17;42.59;101672.22;4422077;32;20107;-70
2021/12/15 05:42:59;;;;;;;2.30;0.30;;;;;;;19.19;42.58;101667.66;4419025;32;20103;-70
2021/12/15 05:45:29;;;;;;;1.45;0.28;;;;;;;19.20;42.32;101668.41;4420091;32;20050;-70
2021/12/15 05:47:57;;;;;;;4.97;0.35;;;;;;;19.42;42.10;101675.59;4418251;32;20160;-70
2021/12/15 05:50:25;;;;;;;7.40;0.43;;;;;;;19.56;41.53;101686.38;4423740;32;20224;-70
2021/12/15 05:52:51;;;;;;;5.57;0.47;;;;;;;19.78;41.66;101689.81;4419382;32;20418;-70
2021/12/15 05:55:18;;;;;;;5.32;0.40;;;;;;;19.75;41.12;101696.47;4420138;32;20394;-70
2021/12/15 05:57:44;;;;;;;4.97;1.33;;;;;;;19.97;41.04;101695.47;4420665;32;20429;-70
2021/12/15 06:00:15;;;;;;;3.17;0.60;;;;;;;19.99;41.05;101695.78;4418309;32;20271;-70
2021/12/15 06:02:42;;;;;;;4.05;0.47;;;;;;;20.08;40.87;101707.19;4416475;32;20037;-70
2021/12/15 06:05:09;;;;;;;2.30;0.50;;;;;;;20.14;40.89;101703.22;4419294;32;20038;-70
2021/12/15 06:07:35;;;;;;;3.75;0.70;;;;;;;20.34;40.50;101712.03;4422904;32;20081;-70
2021/12/15 06:10:03;;;;;;;3.70;0.50;;;;;;;20.06;40.78;101709.75;4418504;32;20141;-70
2021/12/15 06:12:29;;;;;;;1.25;0.30;;;;;;;20.25;40.54;101717.78;4419927;32;20045;-70
2021/12/15 06:14:55;;;;;;;1.77;0.57;;;;;;;19.83;40.93;101713.28;4417235;32;20041;-70
2021/12/15 06:17:25;;;;;;;2.83;0.32;;;;;;;19.95;40.96;101724.53;4419364;32;20036;-70
2021/12/15 06:19:53;;;;;;;4.18;0.50;;;;;;;19.61;41.55;101731.41;4417154;32;20090;-70
2021/12/15 06:22:24;;;;;;;1.80;0.30;;;;;;;19.61;41.70;101731.41;4419278;32;20141;-70
2021/12/15 06:24:52;;;;;;;1.25;0.20;;;;;;;19.24;42.33;101734.72;4421453;32;20085;-70
2021/12/15 06:27:20;;;;;;;1.73;0.40;;;;;;;19.72;41.69;101734.56;4420387;32;20061;-70
2021/12/15 06:29:49;;;;;;;1.48;0.30;;;;;;;19.35;42.00;101733.00;4418583;32;20098;-70
2021/12/15 06:32:16;;;;;;;1.60;0.30;;;;;;;19.80;41.46;101726.47;4417220;32;20103;-70
2021/12/15 06:34:42;;;;;;;4.53;0.60;;;;;;;20.08;40.82;101736.56;4419742;32;20152;-70
2021/12/15 06:37:09;;;;;;;0.95;0.35;;;;;;;19.84;41.39;101741.38;4417405;32;20541;-70
2021/12/15 06:39:35;;;;;;;1.92;0.40;;;;;;;20.12;40.91;101748.63;4416072;32;20367;-70
2021/12/15 06:42:01;;;;;;;2.90;1.12;;;;;;;20.10;40.68;101750.38;4419622;32;20172;-70
2021/12/15 06:44:27;;;;;;;0.88;0.43;;;;;;;19.90;40.95;101767.22;4417800;32;20832;-70
2021/12/15 07:00:42;;;;;;;2.95;1.00;;;;;;;19.95;40.51;101764.53;3998789;31;15016143;-70
2021/12/15 07:03:08;;;;;;;0.93;0.40;;;;;;;20.22;40.23;101775.91;4454119;32;20081;-71
2021/12/15 07:05:34;;;;;;;9.48;0.88;;;;;;;19.97;40.63;101766.91;4447553;32;20085;-69
2021/12/15 07:08:03;;;;;;;2.40;0.60;;;;;;;19.88;40.87;101773.41;4456387;32;20110;-69
2021/12/15 07:10:33;;;;;;;2.78;1.00;;;;;;;20.13;40.44;101758.00;4452766;32;20072;-69
2021/12/15 07:12:59;;;;;;;3.33;0.70;;;;;;;20.37;40.16;101768.25;4454263;32;20119;-69
2021/12/15 07:15:25;;;;;;;2.72;1.23;;;;;;;20.27;40.21;101766.69;4449709;32;20356;-70
2021/12/15 07:17:54;;;;;;;2.00;0.98;;;;;;;19.91;41.01;101775.31;4452795;32;20076;-69
2021/12/15 07:20:35;;;;;;;1.90;1.23;;;;;;;20.06;40.42;101767.66;4451412;32;20076;-69
2021/12/15 07:23:03;;;;;;;5.53;1.40;;;;;;;20.14;40.71;101777.53;4454040;32;20041;-69
2021/12/15 07:25:30;;;;;;;4.28;1.02;;;;;;;20.41;40.41;101768.87;4456340;32;20427;-69
2021/12/15 07:27:56;;;;;;;3.95;1.20;;;;;;;20.25;40.71;101777.03;4449782;32;20678;-70
2021/12/15 07:30:23;;;;;;;5.40;1.20;;;;;;;20.27;40.44;101786.72;4452776;32;20068;-72
2021/12/15 07:32:49;;;;;;;1.75;0.80;;;;;;;19.78;41.47;101778.38;4451982;32;20060;-70
2021/12/15 07:35:16;;;;;;;7.60;1.23;;;;;;;19.97;41.28;101781.97;4451119;32;20101;-70
2021/12/15 07:37:42;;;;;;;2.20;0.73;;;;;;;20.02;41.30;101778.47;4450852;32;20072;-70
2021/12/15 07:40:13;;;;;;;3.45;0.93;;;;;;;19.65;41.75;101779.78;4449325;32;20164;-71
2021/12/15 07:42:54;;;;;;;2.30;0.65;;;;;;;19.93;41.58;101778.50;4446926;32;20088;-70
2021/12/15 07:45:23;;;;;;;1.85;0.88;;;;;;;19.71;41.84;101783.59;4445853;32;20037;-72
2021/12/15 07:47:50;;;;;;;4.47;1.02;;;;;;;19.41;42.41;101784.53;4443667;32;20084;-70
2021/12/15 07:50:19;;;;;;;2.58;0.60;;;;;;;19.62;42.17;101787.25;4447899;32;20413;-70
2021/12/15 07:52:45;;;;;;;7.32;0.90;;;;;;;19.62;42.13;101786.47;4449505;32;20059;-72
2021/12/15 07:55:12;;;;;;;4.32;1.55;;;;;;;19.50;42.34;101785.34;4436737;32;20084;-70
2021/12/15 07:57:38;;;;;;;3.92;0.75;;;;;;;19.54;42.41;101782.31;4439489;32;20537;-70
2021/12/15 08:00:07;;;;;;;4.68;0.80;;;;;;;19.04;42.96;101766.56;4424921;32;20092;-70
2021/12/15 08:02:33;;;;;;;4.32;0.85;;;;;;;19.15;43.21;101780.38;4435484;32;20888;-70
2021/12/15 08:04:59;;;;;;;4.03;0.60;;;;;;;18.77;43.84;101777.06;4433924;32;20080;-70
2021/12/15 08:07:24;;;;;;;2.85;0.50;;;;;;;18.96;43.66;101784.44;4430302;32;20103;-70
2021/12/15 08:09:50;;;;;;;3.08;0.55;;;;;;;18.85;43.82;101782.03;4429638;32;21100;-71
2021/12/15 08:12:16;;;;;;;4.18;0.25;;;;;;;18.83;43.88;101780.91;4419724;32;20099;-71
2021/12/15 08:14:42;;;;;;;2.17;0.60;;;;;;;18.64;44.52;101782.91;4425129;32;20168;-71
2021/12/15 08:17:08;;;;;;;3.70;0.75;;;;;;;18.63;44.56;101784.19;4425325;32;20086;-71
2021/12/15 08:19:34;;;;;;;4.47;0.80;;;;;;;18.48;45.07;101782.34;4423124;32;20358;-71
2021/12/15 08:21:59;;;;;;;4.80;0.70;;;;;;;18.48;44.85;101788.06;4426078;32;20123;-71
2021/12/15 08:24:25;;;;;;;3.05;0.80;;;;;;;18.25;45.77;101774.31;4423234;32;20152;-71
2021/12/15 08:26:51;;;;;;;6.93;0.70;;;;;;;17.87;46.75;101775.34;4422813;32;20545;-71
2021/12/15 08:29:17;;;;;;;3.22;0.65;;;;;;;17.81;46.77;101787.78;4422529;32;20037;-70
2021/12/15 08:31:43;;;;;;;2.80;0.50;;;;;;;18.01;46.45;101782.53;4423032;32;20044;-70
2021/12/15 08:34:09;;;;;;;2.55;0.55;;;;;;;18.22;45.95;101783.78;4425415;32;21161;-70
2021/12/15 08:36:37;;;;;;;5.07;1.00;;;;;;;18.32;45.83;101785.41;4424936;32;20065;-71
2021/12/15 08:39:04;;;;;;;4.37;0.85;;;;;;;18.18;46.29;101781.06;4427529;32;20123;-70
2021/12/15 08:41:30;;;;;;;8.00;1.12;;;;;;;18.24;46.17;101776.34;4424815;32;20420;-70
2021/12/15 08:43:58;;;;;;;3.37;0.90;;;;;;;17.94;46.67;101779.19;4426852;32;20045;-70
2021/12/15 08:46:30;;;;;;;5.57;1.00;;;;;;;18.19;46.29;101776.94;4424910;32;20666;-70
2021/12/15 08:49:02;;;;;;;2.37;0.65;;;;;;;18.37;45.89;101784.81;4422372;32;20073;-70
2021/12/15 08:51:29;;;;;;;6.68;1.33;;;;;;;18.24;46.13;101792.66;4423526;32;20103;-68
2021/12/15 08:53:57;;;;;;;5.35;1.40;;;;;;;18.11;46.43;101783.41;4426097;32;20041;-70
2021/12/15 08:56:24;;;;;;;5.37;0.93;;;;;;;18.24;46.13;101784.09;4424290;32;20561;-70
2021/12/15 08:58:50;;;;;;;5.10;1.12;;;;;;;18.09;46.32;101797.31;4425378;32;20434;-70
2021/12/15 09:01:18;;;;;;;3.92;0.65;;;;;;;18.21;46.19;101799.28;4423326;32;20092;-70
2021/12/15 09:03:44;;;;;;;4.35;0.75;;;;;;;18.04;46.29;101793.00;4425570;32;20102;-71
2021/12/15 09:06:12;;;;;;;4.97;0.95;;;;;;;18.32;45.73;101796.81;4427994;32;20044;-70
2021/12/15 09:08:39;;;;;;;3.60;0.57;;;;;;;18.48;45.53;101794.56;4428193;32;20148;-70
2021/12/15 09:11:12;;;;;;;3.53;0.90;;;;;;;18.16;46.27;101812.06;4426420;32;20074;-71
2021/12/15 09:13:38;;;;;;;3.15;0.93;;;;;;;18.32;46.02;101809.03;4430236;32;20081;-71
2021/12/15 09:16:08;;;;;;;4.53;0.62;;;;;;;18.19;46.12;101810.38;4426549;32;20045;-71
2021/12/15 09:18:36;;;;;;;10.15;0.93;;;;;;;18.37;46.11;101799.87;4411914;32;20470;-71
2021/12/15 09:21:03;;;;;;;5.12;1.05;;;;;;;18.52;45.78;101805.81;4425964;32;20470;-71
2021/12/15 09:23:30;;;;;;;2.95;0.70;;;;;;;18.31;46.04;101800.94;4429476;32;20072;-70
2021/12/15 09:25:55;;;;;;;5.57;0.93;;;;;;;18.55;45.39;101810.56;4427778;32;20460;-70
2021/12/15 09:28:21;;;;;;;4.03;0.65;;;;;;;18.70;45.25;101814.44;4428240;32;20077;-71
2021/12/15 09:30:48;;;;;;;4.57;0.95;;;;;;;18.29;45.85;101817.69;4427154;32;20119;-70
2021/12/15 09:33:18;;;;;;;4.78;0.70;;;;;;;18.72;45.31;101815.56;4424538;32;20097;-69
2021/12/15 09:35:45;;;;;;;4.53;1.00;;;;;;;18.87;45.34;101813.72;4423853;32;20065;-70
2021/12/15 09:38:15;;;;;;;5.47;0.98;;;;;;;18.82;45.35;101810.69;4424422;32;20123;-70
2021/12/15 09:40:43;;;;;;;2.95;0.77;;;;;;;19.15;44.68;101817.47;4428496;32;20069;-70
2021/12/15 09:43:11;;;;;;;4.20;0.90;;;;;;;19.28;43.87;101816.09;4425976;32;20153;-69
2021/12/15 09:45:47;;;;;;;2.60;0.75;;;;;;;19.47;43.53;101811.19;4399853;32;20081;-69
2021/12/15 10:02:33;;;;;;;3.50;0.98;;;;;;;21.17;40.37;101829.25;4404181;32;20092;-72
2021/12/15 10:05:15;;;;;;;4.35;1.20;;;;;;;20.82;40.73;101830.22;4402100;32;20334;-71
2021/12/15 10:18:46;;;;;;;6.20;1.37;;;;;;;21.36;39.71;101841.41;4451554;32;20033;-71
2021/12/15 10:21:34;;;;;;;3.33;1.00;;;;;;;21.03;39.83;101843.50;4450032;32;20072;-71
2021/12/15 10:24:00;;;;;;;6.55;0.80;;;;;;;21.17;39.38;101851.38;4449448;32;20036;-71
2021/12/15 10:26:25;;;;;;;7.75;1.35;;;;;;;21.15;39.74;101845.34;4450249;32;20044;-71
2021/12/15 10:28:52;;;;;;;6.62;0.90;;;;;;;21.17;39.91;101857.88;4448753;32;20452;-71
2021/12/15 10:31:27;;;;;;;3.62;0.85;;;;;;;21.42;39.45;101860.28;4453573;32;20111;-71
2021/12/15 10:33:59;;;;;;;5.95;1.20;;;;;;;21.56;38.94;101873.09;4449159;32;20079;-71
2021/12/15 10:36:30;;;;;;;6.10;1.48;;;;;;;21.61;38.97;101875.28;4450970;32;20075;-71
2021/12/15 10:39:01;;;;;;;2.00;1.02;;;;;;;22.20;38.08;101868.47;4437172;32;20089;-71
2021/12/15 10:54:49;;;;;;;7.47;1.45;;;;;;;21.96;38.80;101864.06;3974541;32;15025810;-71
2021/12/15 10:57:19;;;;;;;5.65;1.55;;;;;;;21.96;38.80;101864.06;4425931;32;20619;-71
2021/12/15 11:02:27;;;;;;;6.07;1.00;;;;;;;21.15;40.51;101865.38;3977005;32;15022374;-71
2021/12/15 11:04:57;;;;;;;4.25;0.90;;;;;;;21.15;40.51;101865.38;4432347;32;20068;-71
2021/12/15 11:12:41;;;;;;;8.38;1.37;;;;;;;20.78;40.93;101867.59;3946478;32;15014477;-71
2021/12/15 11:15:22;;;;;;;4.22;1.15;;;;;;;20.74;41.16;101863.31;4402839;32;20070;-71
2021/12/15 11:18:00;;;;;;;7.80;1.65;;;;;;;20.77;40.71;101859.50;4401960;32;20091;-71
2021/12/15 11:23:08;;;;;;;9.02;1.45;;;;;;;21.56;39.69;101856.69;3975402;31;15016359;-70
2021/12/15 11:25:57;;;;;;;5.60;1.20;;;;;;;21.56;39.69;101856.69;4421657;32;20088;-71
2021/12/15 11:33:48;;;;;;;9.82;1.40;;;;;;;22.35;37.74;101866.41;3972647;32;15022825;-72
2021/12/15 11:41:38;;;;;;;8.77;1.40;;;;;;;23.86;34.74;101868.25;3975393;32;15021618;-72
2021/12/15 11:44:07;;;;;;;5.20;1.10;;;;;;;23.86;34.74;101868.25;4425415;32;20148;-69
2021/12/15 11:46:42;;;;;;;6.70;1.17;;;;;;;23.10;35.55;101869.53;4425399;32;20155;-69
2021/12/15 11:54:30;;;;;;;7.70;1.30;;;;;;;24.72;33.39;101868.97;3966902;32;15026106;-71
2021/12/15 11:57:25;;;;;;;5.78;1.62;;;;;;;24.72;33.39;101868.97;4423051;32;20103;-71
2021/12/15 11:59:54;;;;;;;6.93;1.23;;;;;;;24.39;33.69;101868.66;4425182;32;20122;-71
2021/12/15 12:05:05;;;;;;;7.57;1.40;;;;;;;24.75;33.28;101859.31;3975149;32;15022034;-71
2021/12/15 12:07:39;;;;;;;9.95;1.25;;;;;;;24.75;33.28;101859.31;4427609;32;20194;-70
2021/12/15 12:12:51;;;;;;;5.95;1.33;;;;;;;25.14;32.76;101857.53;3944258;32;15727514;-71
2021/12/15 12:15:23;;;;;;;5.72;1.12;;;;;;;25.14;32.76;101857.53;4423174;32;20083;-71
2021/12/15 12:17:52;;;;;;;6.95;1.15;;;;;;;24.55;33.43;101860.19;4421259;32;20084;-70
2021/12/15 12:20:24;;;;;;;10.27;1.60;;;;;;;24.85;32.76;101855.75;4420604;32;20572;-71
2021/12/15 12:22:52;;;;;;;5.65;1.37;;;;;;;24.95;32.75;101862.88;4420695;32;20077;-71
2021/12/15 12:25:23;;;;;;;8.90;1.65;;;;;;;24.73;33.14;101856.94;4422691;32;20095;-70
2021/12/15 12:27:50;;;;;;;7.15;1.50;;;;;;;24.34;33.74;101867.28;4420907;32;20052;-71
2021/12/15 12:30:23;;;;;;;8.23;1.48;;;;;;;24.08;33.90;101866.47;4418029;32;20151;-71
2021/12/15 12:32:50;;;;;;;8.30;1.58;;;;;;;23.45;34.63;101858.84;4421484;32;20455;-71
2021/12/15 12:35:20;;;;;;;12.23;1.52;;;;;;;22.84;36.04;101865.72;4420092;32;20120;-69
2021/12/15 12:37:53;;;;;;;7.95;1.42;;;;;;;23.03;35.85;101872.81;4422189;32;20081;-69
2021/12/15 12:40:25;;;;;;;6.78;1.85;;;;;;;22.85;36.22;101870.16;4420564;32;20084;-71
2021/12/15 12:42:51;;;;;;;6.32;1.00;;;;;;;23.34;35.66;101870.19;4420285;32;20085;-70
2021/12/15 12:48:05;;;;;;;8.73;1.23;;;;;;;24.55;33.34;101899.69;3954697;32;15024958;-70
2021/12/15 13:01:24;;;;;;;7.68;1.37;;;;;;;24.92;32.48;101915.78;3977069;32;15023795;-71
2021/12/15 13:03:56;;;;;;;7.05;1.25;;;;;;;24.92;32.48;101915.78;4428505;32;20122;-71
2021/12/15 13:06:25;;;;;;;3.55;1.30;;;;;;;24.15;33.71;101908.41;4430863;32;21592;-71
2021/12/15 13:11:38;;;;;;;10.10;1.83;;;;;;;22.96;35.57;101908.47;3965421;32;15061833;-71
2021/12/15 13:19:43;;;;;;;8.40;1.37;;;;;;;21.74;38.16;101909.44;3979128;32;15023556;-69
2021/12/15 13:22:56;;;;;;;8.07;1.37;;;;;;;21.45;38.88;101896.53;4443767;32;20064;-70
2021/12/15 13:41:39;;;;;;;11.02;1.35;;;;;;;20.90;41.00;101900.12;3967819;32;15021479;-70
2021/12/15 13:55:36;;;;;;;6.53;1.70;;;;;;;21.25;40.36;101922.13;3978455;32;15024852;-71
2021/12/15 14:06:11;;;;;;;6.47;1.75;;;;;;;21.09;40.67;101925.37;3972801;32;15023981;-70
2021/12/15 14:08:42;;;;;;;7.93;1.80;;;;;;;20.81;41.14;101926.72;4421315;32;20758;-70
2021/12/15 14:13:48;;;;;;;13.13;3.65;;;;;;;22.79;37.84;101927.47;3989020;31;15017031;-72
2021/12/15 14:19:16;;;;;;;6.60;1.85;;;;;;;23.12;36.51;101925.19;3956556;32;15023909;-71
2021/12/15 14:21:47;;;;;;;13.43;2.10;;;;;;;24.06;35.21;101931.56;4404874;32;20084;-70
2021/12/15 14:24:15;;;;;;;6.93;2.03;;;;;;;24.15;34.61;101920.72;4410716;32;20129;-71
2021/12/15 14:26:42;;;;;;;5.97;1.65;;;;;;;24.82;33.73;101931.63;4411261;32;20204;-71
2021/12/15 14:29:13;;;;;;;8.13;1.92;;;;;;;25.47;32.71;101926.16;4408523;32;20074;-71
2021/12/15 14:31:41;;;;;;;6.43;1.42;;;;;;;25.82;31.82;101938.16;4412809;32;20065;-71
2021/12/15 14:34:14;;;;;;;7.28;1.62;;;;;;;25.68;31.90;101942.03;4410266;32;20046;-70
2021/12/15 14:36:44;;;;;;;8.05;1.75;;;;;;;26.00;31.21;101946.41;4409186;32;20062;-70